Time;durP1;ratioP1;P1;durP2;ratioP2;P2;SDS_P1;SDS_P2;PMS_P1;PMS_P2;Temp;Humidity;BMP_temperature;BMP_pressure;BME280_temperature;BME280_humidity;BME280_pressure;Samples;Min_cycle;Max_cycle;Signal;HPM_P1;HPM_P2
2021/01/16 00:01:42;;;;;;;15.70;11.40;;;3.40;99.90;;;;;;5033311;28;20237;-58
2021/01/16 00:04:09;;;;;;;14.97;11.30;;;3.50;99.90;;;;;;5033564;28;20218;-58
2021/01/16 00:06:36;;;;;;;15.17;11.87;;;3.40;99.90;;;;;;5033708;28;20210;-58
2021/01/16 00:09:03;;;;;;;14.80;11.10;;;3.40;99.90;;;;;;5033286;28;20206;-57
2021/01/16 00:11:30;;;;;;;14.43;10.70;;;3.40;99.90;;;;;;5033033;28;20230;-57
2021/01/16 00:13:56;;;;;;;15.87;11.43;;;3.40;99.90;;;;;;5033426;28;20245;-57
2021/01/16 00:16:22;;;;;;;17.93;11.60;;;3.40;99.90;;;;;;5033603;28;20638;-58
2021/01/16 00:18:48;;;;;;;13.77;10.67;;;3.40;99.90;;;;;;5033670;28;20229;-60
2021/01/16 00:21:15;;;;;;;15.33;11.47;;;3.40;99.90;;;;;;5033123;28;20210;-58
2021/01/16 00:23:42;;;;;;;16.83;11.80;;;3.40;99.90;;;;;;5032970;28;20230;-57
2021/01/16 00:26:08;;;;;;;15.83;11.40;;;3.40;99.90;;;;;;5033026;28;20591;-58
2021/01/16 00:28:34;;;;;;;16.03;10.93;;;3.40;99.90;;;;;;5031894;28;20210;-58
2021/01/16 00:31:02;;;;;;;16.27;11.37;;;3.40;99.90;;;;;;5033132;28;20209;-58
2021/01/16 00:33:30;;;;;;;14.27;10.80;;;3.40;99.90;;;;;;5032741;28;20284;-58
2021/01/16 00:35:57;;;;;;;14.77;11.27;;;3.40;99.90;;;;;;5032902;28;20682;-58
2021/01/16 00:38:25;;;;;;;14.83;11.20;;;3.40;99.90;;;;;;5032833;28;20210;-58
2021/01/16 00:40:53;;;;;;;14.73;11.10;;;3.40;99.90;;;;;;5032811;28;20685;-58
2021/01/16 00:43:19;;;;;;;14.70;11.00;;;3.40;99.90;;;;;;5032612;28;20772;-58
2021/01/16 00:45:46;;;;;;;16.17;11.53;;;3.40;99.90;;;;;;5032782;28;20206;-58
2021/01/16 00:48:14;;;;;;;14.20;11.03;;;3.30;99.90;;;;;;5032821;28;20206;-59
2021/01/16 00:50:41;;;;;;;17.07;11.80;;;3.30;99.90;;;;;;5032912;28;20572;-59
2021/01/16 00:53:08;;;;;;;16.57;11.87;;;3.30;99.90;;;;;;5032663;28;20218;-59
2021/01/16 00:55:35;;;;;;;16.47;12.03;;;3.20;99.90;;;;;;5033009;28;20637;-59
2021/01/16 00:58:08;;;;;;;16.73;12.20;;;3.30;99.90;;;;;;5032888;28;20583;-59
2021/01/16 01:00:35;;;;;;;17.63;11.60;;;3.30;99.90;;;;;;5032610;28;20599;-59
2021/01/16 01:03:01;;;;;;;15.67;11.60;;;3.30;99.90;;;;;;5032309;28;20230;-59
2021/01/16 01:05:27;;;;;;;14.47;10.77;;;3.30;99.90;;;;;;5032166;28;20712;-59
2021/01/16 01:07:54;;;;;;;15.80;11.73;;;3.40;99.90;;;;;;5032132;28;20210;-59
2021/01/16 01:10:24;;;;;;;20.63;12.60;;;3.40;99.90;;;;;;5032373;28;20260;-58
2021/01/16 01:12:51;;;;;;;28.83;15.50;;;3.40;99.90;;;;;;5032225;28;20705;-59
2021/01/16 01:15:19;;;;;;;17.07;11.77;;;3.40;99.90;;;;;;5032261;28;20296;-59
2021/01/16 01:17:50;;;;;;;17.63;11.90;;;3.40;99.90;;;;;;5032075;28;20229;-59
2021/01/16 01:20:16;;;;;;;16.33;11.43;;;3.40;99.90;;;;;;5031977;28;20589;-59
2021/01/16 01:22:42;;;;;;;15.67;10.23;;;3.40;99.90;;;;;;5032071;28;20256;-59
2021/01/16 01:25:09;;;;;;;15.93;12.03;;;3.40;99.90;;;;;;5032044;28;20394;-58
2021/01/16 01:27:35;;;;;;;15.93;11.27;;;3.40;99.90;;;;;;5032018;28;20213;-58
2021/01/16 01:30:02;;;;;;;16.03;11.27;;;3.40;99.90;;;;;;5031944;28;20210;-59
2021/01/16 01:32:29;;;;;;;15.60;11.20;;;3.30;99.90;;;;;;5031936;28;20233;-59
2021/01/16 01:34:56;;;;;;;15.70;11.57;;;3.30;99.90;;;;;;5031509;28;20202;-60
2021/01/16 01:37:22;;;;;;;17.20;11.50;;;3.30;99.90;;;;;;5032080;28;20210;-59
2021/01/16 01:39:48;;;;;;;14.43;11.33;;;3.30;99.90;;;;;;5031868;28;20206;-59
2021/01/16 01:42:15;;;;;;;14.47;10.73;;;3.30;99.90;;;;;;5032271;28;20223;-59
2021/01/16 01:44:42;;;;;;;16.00;11.77;;;3.40;99.90;;;;;;5031777;28;20313;-59
2021/01/16 01:47:10;;;;;;;15.10;11.50;;;3.40;99.90;;;;;;5031620;28;20217;-59
2021/01/16 01:49:38;;;;;;;16.50;11.30;;;3.40;99.90;;;;;;5031553;28;20206;-58
2021/01/16 01:52:05;;;;;;;17.83;11.77;;;3.40;99.90;;;;;;5031840;28;20226;-59
2021/01/16 01:54:34;;;;;;;15.47;11.90;;;3.40;99.90;;;;;;5031562;28;20198;-59
2021/01/16 01:57:02;;;;;;;18.37;11.67;;;3.40;99.90;;;;;;5031596;28;20210;-58
2021/01/16 01:59:33;;;;;;;14.77;11.30;;;3.40;99.90;;;;;;5031512;28;20359;-59
2021/01/16 02:02:01;;;;;;;16.90;11.70;;;3.40;99.90;;;;;;5031260;28;20607;-59
2021/01/16 02:04:30;;;;;;;17.10;11.20;;;3.40;99.90;;;;;;5031377;28;20236;-59
2021/01/16 02:06:58;;;;;;;16.17;11.17;;;3.40;99.90;;;;;;5031343;28;20313;-59
2021/01/16 02:09:24;;;;;;;15.80;11.63;;;3.40;99.90;;;;;;5031203;28;20289;-59
2021/01/16 02:11:53;;;;;;;17.53;11.97;;;3.50;99.90;;;;;;5031281;28;20230;-59
2021/01/16 02:14:21;;;;;;;18.67;11.03;;;3.50;99.90;;;;;;5030815;28;20198;-58
2021/01/16 02:16:50;;;;;;;15.93;11.27;;;3.40;99.90;;;;;;5031225;28;20209;-59
2021/01/16 02:19:38;;;;;;;49.00;32.13;;;3.40;99.90;;;;;;5031255;28;20210;-59
2021/01/16 02:22:06;;;;;;;19.83;13.50;;;3.40;99.90;;;;;;5030877;28;20238;-59
2021/01/16 02:24:40;;;;;;;15.53;11.60;;;3.40;99.90;;;;;;5030987;28;20253;-58
2021/01/16 02:27:28;;;;;;;16.97;11.33;;;3.40;99.90;;;;;;5031238;28;20198;-59
2021/01/16 02:29:55;;;;;;;14.37;11.07;;;3.40;99.90;;;;;;5030943;28;20390;-59
2021/01/16 02:32:23;;;;;;;15.07;11.00;;;3.40;99.90;;;;;;5031094;28;20226;-59
2021/01/16 02:34:52;;;;;;;17.20;12.00;;;3.40;99.90;;;;;;5030814;28;20343;-59
2021/01/16 02:37:40;;;;;;;16.63;11.93;;;3.40;99.90;;;;;;5030877;28;20206;-59
2021/01/16 02:40:15;;;;;;;20.93;13.23;;;3.50;99.90;;;;;;5030900;28;20209;-59
2021/01/16 02:42:51;;;;;;;16.93;11.20;;;3.40;99.90;;;;;;5030790;28;20237;-59
2021/01/16 02:45:22;;;;;;;19.47;13.10;;;3.50;99.90;;;;;;5030571;28;20317;-59
2021/01/16 02:47:56;;;;;;;16.37;11.70;;;3.40;99.90;;;;;;5030640;28;20202;-59
2021/01/16 02:50:23;;;;;;;16.60;11.77;;;3.40;99.90;;;;;;5031087;28;20214;-59
2021/01/16 02:52:50;;;;;;;21.50;11.40;;;3.40;99.90;;;;;;5034128;28;20313;-59
2021/01/16 02:55:17;;;;;;;15.90;11.30;;;3.40;99.90;;;;;;5034920;28;20660;-59
2021/01/16 02:57:44;;;;;;;15.70;11.67;;;3.40;99.90;;;;;;5034792;28;20233;-59
2021/01/16 03:00:13;;;;;;;15.63;11.20;;;3.40;99.90;;;;;;5035191;28;20581;-58
2021/01/16 03:02:39;;;;;;;17.47;11.10;;;3.40;99.90;;;;;;5035126;28;20234;-59
2021/01/16 03:05:07;;;;;;;15.70;11.57;;;3.30;99.90;;;;;;5034491;28;20226;-59
2021/01/16 03:07:34;;;;;;;18.33;12.37;;;3.30;99.90;;;;;;5034965;28;20272;-59
2021/01/16 03:10:04;;;;;;;15.80;10.97;;;3.30;99.90;;;;;;5034829;28;20206;-59
2021/01/16 03:12:31;;;;;;;15.93;11.63;;;3.40;99.90;;;;;;5034701;28;20230;-59
2021/01/16 03:15:03;;;;;;;18.57;12.30;;;3.40;99.90;;;;;;5034300;28;20670;-59
2021/01/16 03:17:47;;;;;;;16.90;11.90;;;3.30;99.90;;;;;;5034497;28;20213;-59
2021/01/16 03:20:18;;;;;;;18.03;11.80;;;3.30;99.90;;;;;;5034530;28;20214;-59
2021/01/16 03:22:44;;;;;;;17.40;12.23;;;3.30;99.90;;;;;;5066725;22;20260;-64
2021/01/16 03:25:12;;;;;;;16.30;12.13;;;3.30;99.90;;;;;;5074589;28;20248;-63
2021/01/16 03:27:38;;;;;;;18.53;11.77;;;3.30;99.90;;;;;;5074749;28;20209;-63
2021/01/16 03:30:06;;;;;;;18.53;12.87;;;3.30;99.90;;;;;;5074531;28;20686;-66
2021/01/16 03:32:32;;;;;;;18.97;12.20;;;3.30;99.90;;;;;;5074415;28;20743;-64
2021/01/16 03:34:58;;;;;;;18.83;12.40;;;3.30;99.90;;;;;;5074268;28;20204;-65
2021/01/16 03:37:25;;;;;;;18.60;12.73;;;3.30;99.90;;;;;;5074171;28;20205;-63
2021/01/16 03:39:51;;;;;;;17.23;12.50;;;3.30;99.90;;;;;;5073725;28;20209;-64
2021/01/16 03:42:17;;;;;;;19.43;13.10;;;3.30;99.90;;;;;;5073313;28;20221;-63
2021/01/16 03:44:44;;;;;;;19.70;12.20;;;3.30;99.90;;;;;;5073343;28;20221;-63
2021/01/16 03:47:11;;;;;;;18.87;13.07;;;3.30;99.90;;;;;;5073585;28;20200;-64
2021/01/16 03:49:37;;;;;;;19.97;12.87;;;3.30;99.90;;;;;;5073501;28;20200;-63
2021/01/16 03:52:04;;;;;;;19.10;12.43;;;3.40;99.90;;;;;;5073827;28;20229;-63
2021/01/16 03:54:30;;;;;;;18.73;12.47;;;3.40;99.90;;;;;;5073217;28;20201;-64
2021/01/16 03:56:56;;;;;;;18.23;13.10;;;3.40;99.90;;;;;;5073792;28;20205;-63
2021/01/16 03:59:23;;;;;;;18.87;12.97;;;3.40;99.90;;;;;;5073869;28;20212;-63
2021/01/16 04:01:49;;;;;;;20.77;13.60;;;3.40;99.90;;;;;;5073724;28;20208;-63
2021/01/16 04:04:16;;;;;;;19.07;13.90;;;3.40;99.90;;;;;;5073202;28;20224;-65
2021/01/16 04:06:43;;;;;;;19.53;13.67;;;3.40;99.90;;;;;;5073426;28;20205;-63
2021/01/16 04:09:09;;;;;;;19.07;13.40;;;3.40;99.90;;;;;;5073164;28;20295;-63
2021/01/16 04:11:36;;;;;;;18.73;13.57;;;3.30;99.90;;;;;;5073738;28;20213;-63
2021/01/16 04:14:02;;;;;;;21.47;13.33;;;3.40;99.90;;;;;;5073586;28;20201;-64
2021/01/16 04:16:28;;;;;;;20.23;13.67;;;3.40;99.90;;;;;;5073557;28;20231;-64
2021/01/16 04:18:55;;;;;;;19.53;12.87;;;3.40;99.90;;;;;;5073129;28;20205;-63
2021/01/16 04:21:23;;;;;;;20.67;14.10;;;3.40;99.90;;;;;;5072828;28;20205;-63
2021/01/16 04:23:49;;;;;;;19.00;13.00;;;3.40;99.90;;;;;;5054669;28;543721;-63
2021/01/16 04:26:16;;;;;;;18.53;12.87;;;3.50;99.90;;;;;;5074228;28;20204;-63
2021/01/16 04:28:42;;;;;;;22.73;14.23;;;3.40;99.90;;;;;;5074192;28;20216;-63
2021/01/16 04:31:08;;;;;;;19.87;13.77;;;3.40;99.90;;;;;;5074011;28;20208;-63
2021/01/16 04:33:34;;;;;;;19.20;12.83;;;3.50;99.90;;;;;;5073335;28;20229;-63
2021/01/16 04:36:01;;;;;;;20.97;13.70;;;3.50;99.90;;;;;;5073631;28;20262;-63
2021/01/16 04:38:28;;;;;;;21.80;13.97;;;3.50;99.90;;;;;;5073787;28;21243;-63
2021/01/16 04:40:54;;;;;;;19.37;13.80;;;3.50;99.90;;;;;;5073720;28;20209;-63
2021/01/16 04:43:21;;;;;;;22.43;15.17;;;3.50;99.90;;;;;;5073918;28;20229;-63
2021/01/16 04:45:50;;;;;;;20.10;13.37;;;3.50;99.90;;;;;;5073407;28;20244;-63
2021/01/16 04:48:20;;;;;;;20.17;13.50;;;3.50;99.90;;;;;;5073613;28;20201;-63
2021/01/16 04:50:49;;;;;;;36.27;20.03;;;3.40;99.90;;;;;;5073776;28;20215;-64
2021/01/16 04:53:19;;;;;;;21.03;13.70;;;3.40;99.90;;;;;;5073391;28;20221;-63
2021/01/16 04:55:47;;;;;;;21.20;14.00;;;3.40;99.90;;;;;;5073228;28;20596;-64
2021/01/16 04:58:14;;;;;;;22.43;13.83;;;3.40;99.90;;;;;;5073035;28;20229;-63
2021/01/16 05:00:41;;;;;;;19.77;13.47;;;3.40;99.90;;;;;;5073289;28;20212;-63
2021/01/16 05:03:09;;;;;;;20.93;14.10;;;3.40;99.90;;;;;;5073125;28;20221;-63
2021/01/16 05:05:40;;;;;;;21.10;14.00;;;3.40;99.90;;;;;;5073115;28;20282;-63
2021/01/16 05:08:07;;;;;;;20.80;14.73;;;3.40;99.90;;;;;;5073424;28;20738;-63
2021/01/16 05:10:38;;;;;;;21.57;14.33;;;3.30;99.90;;;;;;5073047;28;20231;-63
2021/01/16 05:13:11;;;;;;;23.03;14.40;;;3.30;99.90;;;;;;5073073;28;20221;-65
2021/01/16 05:15:38;;;;;;;22.10;13.70;;;3.30;99.90;;;;;;5072185;28;20239;-64
2021/01/16 05:18:07;;;;;;;22.80;15.80;;;3.20;99.90;;;;;;5073087;28;20208;-62
2021/01/16 05:20:34;;;;;;;20.77;14.07;;;3.30;99.90;;;;;;5072786;28;20264;-63
2021/01/16 05:23:13;;;;;;;23.93;13.90;;;3.30;99.90;;;;;;5072951;28;20251;-63
2021/01/16 05:25:40;;;;;;;21.67;14.27;;;3.30;99.90;;;;;;5072761;28;20319;-62
2021/01/16 05:28:08;;;;;;;22.80;15.03;;;3.30;99.90;;;;;;5072677;28;20290;-62
2021/01/16 05:30:49;;;;;;;21.70;14.40;;;3.30;99.90;;;;;;5072591;28;20217;-63
2021/01/16 05:33:16;;;;;;;19.03;12.83;;;3.30;99.90;;;;;;5072466;28;20220;-62
2021/01/16 05:35:42;;;;;;;21.17;14.07;;;3.40;99.90;;;;;;5072388;28;20345;-63
2021/01/16 05:38:11;;;;;;;20.63;14.03;;;3.40;99.90;;;;;;5073788;28;20205;-62
2021/01/16 05:40:38;;;;;;;20.67;14.20;;;3.40;99.90;;;;;;5074136;28;20208;-62
2021/01/16 05:43:07;;;;;;;23.87;14.73;;;3.40;99.90;;;;;;5074626;28;20228;-63
2021/01/16 05:45:34;;;;;;;21.63;14.63;;;3.40;99.90;;;;;;5073873;28;20224;-62
2021/01/16 05:48:02;;;;;;;20.57;14.50;;;3.30;99.90;;;;;;5074506;28;20204;-63
2021/01/16 05:50:29;;;;;;;20.73;14.80;;;3.30;99.90;;;;;;5073978;28;20580;-63
2021/01/16 05:52:56;;;;;;;21.00;14.23;;;3.40;99.90;;;;;;5073874;28;20232;-63
2021/01/16 05:55:23;;;;;;;19.73;13.73;;;3.30;99.90;;;;;;5073557;28;20863;-63
2021/01/16 05:57:58;;;;;;;19.93;14.03;;;3.40;99.90;;;;;;5074359;28;20212;-63
2021/01/16 06:00:27;;;;;;;23.47;14.97;;;3.40;99.90;;;;;;5073807;28;20714;-63
2021/01/16 06:02:53;;;;;;;22.60;14.80;;;3.30;99.90;;;;;;5074282;28;20229;-64
2021/01/16 06:05:23;;;;;;;21.00;14.30;;;3.30;99.90;;;;;;5073315;28;20229;-62
2021/01/16 06:07:52;;;;;;;20.50;14.57;;;3.30;99.90;;;;;;5074224;28;20250;-62
2021/01/16 06:10:18;;;;;;;21.93;14.83;;;3.30;99.90;;;;;;5074393;28;20207;-63
2021/01/16 06:12:45;;;;;;;23.23;15.00;;;3.20;99.90;;;;;;5074243;28;20232;-63
2021/01/16 06:15:15;;;;;;;23.60;15.53;;;3.20;99.90;;;;;;5073879;28;20197;-63
2021/01/16 06:17:45;;;;;;;22.80;15.17;;;3.30;99.90;;;;;;5074231;28;20216;-63
2021/01/16 06:20:13;;;;;;;20.87;14.67;;;3.20;99.90;;;;;;5073830;28;20589;-63
2021/01/16 06:22:41;;;;;;;21.43;15.00;;;3.30;99.90;;;;;;5072660;28;20232;-63
2021/01/16 06:25:18;;;;;;;22.27;15.00;;;3.30;99.90;;;;;;5071903;28;20232;-63
2021/01/16 06:27:46;;;;;;;20.07;14.53;;;3.30;99.90;;;;;;5072915;28;20224;-63
2021/01/16 06:30:15;;;;;;;24.70;15.67;;;3.30;99.90;;;;;;5072152;28;20795;-63
2021/01/16 06:32:51;;;;;;;22.33;15.17;;;3.30;99.90;;;;;;5071563;28;20224;-65
2021/01/16 06:35:18;;;;;;;20.33;14.63;;;3.30;99.90;;;;;;5072020;28;20204;-65
2021/01/16 06:37:46;;;;;;;23.40;15.50;;;3.30;99.90;;;;;;5071791;28;20254;-64
2021/01/16 06:40:14;;;;;;;24.50;15.47;;;3.30;99.90;;;;;;5072094;28;20201;-64
2021/01/16 06:42:41;;;;;;;21.00;14.43;;;3.40;99.90;;;;;;5072301;28;20738;-64
2021/01/16 06:45:09;;;;;;;19.77;14.37;;;3.40;99.90;;;;;;5072866;28;20270;-62
2021/01/16 06:47:37;;;;;;;22.53;15.40;;;3.40;99.90;;;;;;5072432;28;20216;-63
2021/01/16 06:50:06;;;;;;;24.60;15.00;;;3.30;99.90;;;;;;5072937;28;20209;-63
2021/01/16 06:52:35;;;;;;;23.30;15.97;;;3.40;99.90;;;;;;5072665;28;20236;-62
2021/01/16 06:55:03;;;;;;;20.70;14.83;;;3.30;99.90;;;;;;5072487;28;20573;-63
2021/01/16 06:57:31;;;;;;;21.93;14.50;;;3.30;99.90;;;;;;5072725;28;20240;-64
2021/01/16 07:00:08;;;;;;;22.80;15.03;;;3.30;99.90;;;;;;5072126;28;20232;-64
2021/01/16 07:02:35;;;;;;;23.70;16.50;;;3.30;99.90;;;;;;5073567;28;20221;-63
2021/01/16 07:05:05;;;;;;;25.27;16.30;;;3.30;99.90;;;;;;5071970;28;20221;-64
2021/01/16 07:07:34;;;;;;;22.67;15.27;;;3.30;99.90;;;;;;5072246;28;20212;-65
2021/01/16 07:10:04;;;;;;;21.70;15.40;;;3.30;99.90;;;;;;5071837;28;20201;-62
2021/01/16 07:12:30;;;;;;;28.67;17.67;;;3.30;99.90;;;;;;5071734;28;20256;-63
2021/01/16 07:14:57;;;;;;;21.93;15.27;;;3.30;99.90;;;;;;5071738;28;20623;-63
2021/01/16 07:17:24;;;;;;;28.53;17.93;;;3.30;99.90;;;;;;5071890;28;20208;-62
2021/01/16 07:19:51;;;;;;;23.50;15.70;;;3.30;99.90;;;;;;5071298;28;20212;-64
2021/01/16 07:22:18;;;;;;;25.40;17.00;;;3.30;99.90;;;;;;5071055;28;20240;-62
2021/01/16 07:24:45;;;;;;;21.57;15.13;;;3.40;99.90;;;;;;5070982;28;20227;-64
2021/01/16 07:27:13;;;;;;;22.63;15.43;;;3.40;99.90;;;;;;5071180;28;20296;-62
2021/01/16 07:29:40;;;;;;;23.90;15.83;;;3.40;99.90;;;;;;5071344;28;20213;-63
2021/01/16 07:32:16;;;;;;;24.70;15.50;;;3.30;99.90;;;;;;5071569;28;20225;-64
2021/01/16 07:34:47;;;;;;;21.57;14.57;;;3.40;99.90;;;;;;5071052;28;20205;-63
2021/01/16 07:37:17;;;;;;;22.03;15.03;;;3.40;99.90;;;;;;5072381;28;20201;-65
2021/01/16 07:39:44;;;;;;;23.27;15.80;;;3.40;99.90;;;;;;5074943;28;20216;-63
2021/01/16 07:42:13;;;;;;;23.67;15.27;;;3.40;99.90;;;;;;5076499;28;20353;-63
2021/01/16 07:44:45;;;;;;;22.90;15.33;;;3.40;99.90;;;;;;5076560;28;20229;-64
2021/01/16 07:47:18;;;;;;;22.57;15.37;;;3.40;99.90;;;;;;5076635;28;20240;-63
2021/01/16 07:49:53;;;;;;;26.57;15.53;;;3.40;99.90;;;;;;5076006;28;20209;-65
2021/01/16 07:52:23;;;;;;;22.97;16.13;;;3.40;99.90;;;;;;5076145;28;20235;-62
2021/01/16 07:55:07;;;;;;;21.33;15.83;;;3.50;99.90;;;;;;5075806;28;20201;-64
2021/01/16 07:57:34;;;;;;;22.87;15.50;;;3.40;99.90;;;;;;5075903;28;20208;-62
2021/01/16 08:00:07;;;;;;;23.63;15.63;;;3.40;99.90;;;;;;5075841;28;20212;-63
2021/01/16 08:02:39;;;;;;;23.57;15.30;;;3.50;99.90;;;;;;5076834;28;20303;-63
2021/01/16 08:05:16;;;;;;;21.97;14.40;;;3.50;99.90;;;;;;5074859;28;20320;-63
2021/01/16 08:08:24;;;;;;;20.97;14.27;;;3.50;99.90;;;;;;5074587;28;20231;-64
2021/01/16 08:10:54;;;;;;;21.33;14.83;;;3.60;99.90;;;;;;5036224;28;20640;-65
2021/01/16 08:13:23;;;;;;;21.90;14.77;;;3.60;99.90;;;;;;5074527;28;20232;-64
2021/01/16 08:15:50;;;;;;;22.20;14.80;;;3.60;99.90;;;;;;5074385;28;20692;-63
2021/01/16 08:18:20;;;;;;;21.27;15.13;;;3.70;99.90;;;;;;5074244;28;20215;-62
2021/01/16 08:20:49;;;;;;;22.83;15.43;;;3.70;99.90;;;;;;5074283;28;20205;-63
2021/01/16 08:23:23;;;;;;;24.20;15.87;;;3.70;99.90;;;;;;5073920;28;20237;-63
2021/01/16 08:25:49;;;;;;;23.80;15.63;;;3.70;99.90;;;;;;5074597;28;20319;-63
2021/01/16 08:28:24;;;;;;;26.43;17.40;;;3.80;99.90;;;;;;5074367;28;20204;-63
2021/01/16 08:30:50;;;;;;;20.93;14.93;;;3.80;99.90;;;;;;5074709;28;20212;-63
2021/01/16 08:33:17;;;;;;;23.53;15.90;;;3.80;99.90;;;;;;5074176;28;20235;-63
2021/01/16 08:35:45;;;;;;;21.13;14.47;;;3.80;99.90;;;;;;5073913;28;20216;-63
2021/01/16 08:38:25;;;;;;;21.23;15.30;;;3.80;99.90;;;;;;5074406;28;20709;-62
2021/01/16 08:40:54;;;;;;;23.13;15.03;;;3.70;99.90;;;;;;5074126;28;20681;-64
2021/01/16 08:43:36;;;;;;;22.50;15.63;;;3.70;99.90;;;;;;5074112;28;20224;-63
2021/01/16 08:46:14;;;;;;;23.30;15.20;;;3.60;99.90;;;;;;5073475;28;20220;-63
2021/01/16 08:48:41;;;;;;;23.20;15.00;;;3.70;99.90;;;;;;5073036;28;20208;-62
2021/01/16 08:51:30;;;;;;;24.10;16.27;;;3.70;99.90;;;;;;5074037;28;20205;-64
2021/01/16 08:54:10;;;;;;;36.13;23.97;;;3.70;99.90;;;;;;5074030;28;20220;-63
2021/01/16 08:56:37;;;;;;;22.60;15.77;;;3.80;99.90;;;;;;5074771;28;20636;-63
2021/01/16 08:59:22;;;;;;;23.00;15.10;;;3.80;99.90;;;;;;5073873;28;20205;-64
2021/01/16 09:01:50;;;;;;;24.03;16.33;;;3.80;99.90;;;;;;5073322;28;20607;-61
2021/01/16 09:04:20;;;;;;;22.93;15.70;;;3.90;99.90;;;;;;5072286;28;20204;-60
2021/01/16 09:06:47;;;;;;;24.00;15.23;;;3.90;99.90;;;;;;5070250;28;20212;-65
2021/01/16 09:09:22;;;;;;;20.93;15.40;;;4.00;99.90;;;;;;5072659;28;20209;-65
2021/01/16 09:12:03;;;;;;;19.47;14.63;;;4.10;99.90;;;;;;5072744;28;20736;-65
2021/01/16 09:14:30;;;;;;;21.17;14.90;;;4.20;99.90;;;;;;5072413;28;20213;-64
2021/01/16 09:16:58;;;;;;;22.30;14.77;;;4.30;99.90;;;;;;5073173;28;20637;-67
2021/01/16 09:19:29;;;;;;;23.73;14.60;;;4.30;99.90;;;;;;5077518;28;20216;-69
2021/01/16 09:22:16;;;;;;;21.20;14.97;;;4.40;99.90;;;;;;5077609;28;20232;-66
2021/01/16 09:24:43;;;;;;;19.93;14.20;;;4.40;99.90;;;;;;5072486;28;20408;-66
2021/01/16 09:27:27;;;;;;;21.43;15.33;;;4.50;99.90;;;;;;5072344;28;20213;-63
2021/01/16 09:29:55;;;;;;;22.70;15.07;;;4.50;99.90;;;;;;5072390;28;20209;-63
2021/01/16 09:32:36;;;;;;;19.20;14.77;;;4.60;99.90;;;;;;5072616;28;20225;-63
2021/01/16 09:35:05;;;;;;;20.17;14.77;;;4.50;99.90;;;;;;5072209;28;20563;-63
2021/01/16 09:37:35;;;;;;;20.87;14.83;;;4.50;99.90;;;;;;5072254;28;20201;-63
2021/01/16 09:40:05;;;;;;;22.70;14.80;;;4.60;99.90;;;;;;5071789;28;20205;-63
2021/01/16 09:42:42;;;;;;;22.80;15.17;;;4.60;99.90;;;;;;5071345;28;20224;-63
2021/01/16 09:45:10;;;;;;;20.33;14.43;;;4.60;99.90;;;;;;5071805;28;20382;-63
2021/01/16 09:47:45;;;;;;;23.90;15.80;;;4.60;99.90;;;;;;5071970;28;20207;-63
2021/01/16 09:50:13;;;;;;;19.73;15.13;;;4.60;99.90;;;;;;5071833;28;20253;-63
2021/01/16 09:52:47;;;;;;;19.37;14.57;;;4.60;99.90;;;;;;5071642;28;20232;-63
2021/01/16 09:55:21;;;;;;;22.87;15.40;;;4.70;99.90;;;;;;5071415;28;20660;-63
2021/01/16 09:57:48;;;;;;;21.70;15.03;;;4.70;99.90;;;;;;5071681;28;20208;-63
2021/01/16 10:00:17;;;;;;;22.00;15.73;;;4.80;99.90;;;;;;5071349;28;20209;-63
2021/01/16 10:02:44;;;;;;;20.07;14.67;;;4.80;99.90;;;;;;5071528;28;20731;-63
2021/01/16 10:05:14;;;;;;;21.37;15.43;;;4.80;99.90;;;;;;5071587;28;20228;-63
2021/01/16 10:07:42;;;;;;;20.67;14.40;;;4.80;99.90;;;;;;5071932;28;20765;-63
2021/01/16 10:10:14;;;;;;;20.83;15.10;;;4.80;99.90;;;;;;5073805;28;20209;-62
2021/01/16 10:12:41;;;;;;;18.47;14.53;;;4.80;99.90;;;;;;5073848;28;20232;-63
2021/01/16 10:15:10;;;;;;;21.60;14.97;;;4.80;99.90;;;;;;5073661;28;20669;-63
2021/01/16 10:17:42;;;;;;;22.47;15.57;;;4.80;99.90;;;;;;5073540;28;20681;-63
2021/01/16 10:20:12;;;;;;;20.33;14.43;;;4.80;99.90;;;;;;5073104;28;20209;-62
2021/01/16 10:22:43;;;;;;;19.70;13.73;;;4.80;99.90;;;;;;5072577;28;20354;-63
2021/01/16 10:25:11;;;;;;;18.80;14.17;;;4.80;99.90;;;;;;5072419;28;20274;-63
2021/01/16 10:27:45;;;;;;;21.27;14.93;;;4.70;99.90;;;;;;5072249;28;20204;-63
2021/01/16 10:30:17;;;;;;;22.73;15.67;;;4.70;99.90;;;;;;5072765;28;20204;-63
2021/01/16 10:32:45;;;;;;;20.50;15.63;;;4.70;99.90;;;;;;5072451;28;20243;-63
2021/01/16 10:35:19;;;;;;;28.37;19.77;;;4.60;99.90;;;;;;5072183;28;20208;-63
2021/01/16 10:37:45;;;;;;;20.07;14.73;;;4.50;99.90;;;;;;5071540;28;20517;-63
2021/01/16 10:40:13;;;;;;;22.40;15.83;;;4.50;99.90;;;;;;5072298;28;20205;-64
2021/01/16 10:42:41;;;;;;;20.80;14.47;;;4.50;99.90;;;;;;5072042;28;20278;-64
2021/01/16 10:45:08;;;;;;;20.83;14.83;;;4.30;99.90;;;;;;5071498;28;20504;-64
2021/01/16 10:47:36;;;;;;;21.95;16.02;;;4.30;99.90;;;;;;5070788;28;20439;-64
2021/01/16 10:50:07;;;;;;;20.50;15.50;;;4.30;99.90;;;;;;5069730;28;20219;-65
2021/01/16 10:52:33;;;;;;;20.10;14.97;;;4.40;99.90;;;;;;5071348;28;20239;-67
2021/01/16 10:55:00;;;;;;;20.43;14.37;;;4.40;99.90;;;;;;5071179;28;20587;-66
2021/01/16 10:57:41;;;;;;;20.23;14.90;;;4.40;99.90;;;;;;5072913;28;20232;-63
2021/01/16 11:00:11;;;;;;;20.67;14.50;;;4.50;99.90;;;;;;5073733;28;20208;-64
2021/01/16 11:02:40;;;;;;;20.20;14.57;;;4.40;99.90;;;;;;5072995;28;20225;-67
2021/01/16 11:05:19;;;;;;;21.47;15.07;;;4.50;99.90;;;;;;5072958;28;20259;-68
2021/01/16 11:07:47;;;;;;;24.17;15.13;;;4.40;99.90;;;;;;5073806;28;20288;-69
2021/01/16 11:10:14;;;;;;;21.20;15.27;;;4.50;99.90;;;;;;5075440;28;20211;-70
2021/01/16 11:12:42;;;;;;;18.90;13.97;;;4.60;99.90;;;;;;5076369;28;20217;-67
2021/01/16 11:15:24;;;;;;;17.87;14.07;;;4.70;99.90;;;;;;5077925;28;20703;-67
2021/01/16 11:17:53;;;;;;;20.20;14.70;;;4.70;99.90;;;;;;5059296;28;20667;-65
2021/01/16 11:20:22;;;;;;;19.93;14.53;;;4.70;99.90;;;;;;5057219;28;20210;-67
2021/01/16 11:23:18;;;;;;;19.93;14.80;;;4.70;99.90;;;;;;5057047;28;20237;-64
2021/01/16 11:25:46;;;;;;;18.10;13.67;;;4.80;99.90;;;;;;5055165;28;20229;-65
2021/01/16 11:28:14;;;;;;;17.90;14.10;;;4.90;99.90;;;;;;5055314;28;20205;-64
2021/01/16 11:30:46;;;;;;;20.97;13.60;;;5.00;99.90;;;;;;5055585;28;20487;-66
2021/01/16 11:33:15;;;;;;;19.13;14.50;;;5.10;99.90;;;;;;5056111;28;20225;-63
2021/01/16 11:35:43;;;;;;;17.33;13.10;;;5.30;99.90;;;;;;5055269;28;20236;-64
2021/01/16 11:38:41;;;;;;;15.37;12.17;;;5.40;99.90;;;;;;5055361;28;20212;-65
2021/01/16 11:41:09;;;;;;;16.50;11.33;;;5.40;99.90;;;;;;5055755;28;20213;-68
2021/01/16 11:43:35;;;;;;;16.67;12.50;;;5.30;99.50;;;;;;5058553;28;20244;-68
2021/01/16 11:46:05;;;;;;;14.87;11.53;;;5.30;99.30;;;;;;5055925;28;20283;-63
2021/01/16 11:48:32;;;;;;;16.87;12.97;;;5.20;99.20;;;;;;5055147;28;20231;-64
2021/01/16 11:51:10;;;;;;;15.90;12.33;;;5.20;99.50;;;;;;5055269;28;20673;-65
2021/01/16 11:53:36;;;;;;;22.67;15.23;;;5.30;99.50;;;;;;5054742;28;20225;-62
2021/01/16 11:56:03;;;;;;;16.07;12.30;;;5.30;99.60;;;;;;5054081;28;20214;-63
2021/01/16 11:58:31;;;;;;;16.53;12.20;;;5.40;99.60;;;;;;5054377;28;20220;-62
2021/01/16 12:01:00;;;;;;;19.17;12.47;;;5.40;99.70;;;;;;5053857;28;20259;-63
2021/01/16 12:03:26;;;;;;;16.73;12.93;;;5.50;99.10;;;;;;5053999;28;20731;-62
2021/01/16 12:05:53;;;;;;;17.30;12.33;;;5.50;99.00;;;;;;5053925;28;20225;-60
2021/01/16 12:08:23;;;;;;;16.17;12.00;;;5.40;99.00;;;;;;5053530;28;20206;-61
2021/01/16 12:10:50;;;;;;;15.33;11.90;;;5.50;98.80;;;;;;5054139;28;20205;-60
2021/01/16 12:13:17;;;;;;;17.80;13.63;;;5.50;99.00;;;;;;5053696;28;20230;-62
2021/01/16 12:15:43;;;;;;;16.20;11.70;;;5.60;98.90;;;;;;5053529;28;20213;-62
2021/01/16 12:18:11;;;;;;;16.50;12.40;;;5.60;98.70;;;;;;5053380;28;20754;-62
2021/01/16 12:20:38;;;;;;;16.93;12.27;;;5.60;98.40;;;;;;5053423;28;20263;-61
2021/01/16 12:23:04;;;;;;;17.23;13.10;;;5.50;98.40;;;;;;5053048;28;20229;-61
2021/01/16 12:25:32;;;;;;;18.60;13.93;;;5.50;98.80;;;;;;5053504;28;20229;-62
2021/01/16 12:28:00;;;;;;;17.97;12.70;;;5.50;99.10;;;;;;5053734;28;20213;-63
2021/01/16 12:30:34;;;;;;;18.73;13.40;;;5.60;98.90;;;;;;5053635;28;20581;-61
2021/01/16 12:33:01;;;;;;;17.50;13.20;;;5.60;98.90;;;;;;5053396;28;20230;-61
2021/01/16 12:35:28;;;;;;;16.83;12.83;;;5.70;98.70;;;;;;5053279;28;20208;-63
2021/01/16 12:37:54;;;;;;;17.43;12.80;;;5.80;98.60;;;;;;5053274;28;20258;-62
2021/01/16 12:40:22;;;;;;;17.73;12.50;;;5.70;97.80;;;;;;5053757;28;20202;-61
2021/01/16 12:42:50;;;;;;;19.83;14.53;;;5.60;98.20;;;;;;5052956;28;20229;-61
2021/01/16 12:45:18;;;;;;;16.03;12.27;;;5.50;98.70;;;;;;5052860;28;20618;-62
2021/01/16 12:47:45;;;;;;;16.27;12.00;;;5.60;98.80;;;;;;5052662;28;20287;-61